createdAt,value
2023-01-09T00:00:16.359Z,3.20
2023-01-09T00:02:47.084Z,5.67
2023-01-09T00:05:18.617Z,3.67
2023-01-09T00:07:48.554Z,2.22
2023-01-09T00:10:18.142Z,7.50
2023-01-09T00:12:47.569Z,10.93
2023-01-09T00:15:17.454Z,6.20
2023-01-09T00:17:48.317Z,3.30
2023-01-09T00:20:18.130Z,6.55
2023-01-09T00:22:47.619Z,6.90
2023-01-09T00:25:17.220Z,3.45
2023-01-09T00:27:47.039Z,3.92
2023-01-09T00:30:16.611Z,5.33
2023-01-09T00:32:46.869Z,2.77
2023-01-09T00:35:19.197Z,3.30
2023-01-09T00:37:48.938Z,4.53
2023-01-09T00:40:19.705Z,8.45
2023-01-09T00:42:52.697Z,3.22
2023-01-09T00:45:26.883Z,2.20
2023-01-09T00:47:59.085Z,2.20
2023-01-09T00:50:32.117Z,2.47
2023-01-09T00:53:04.723Z,2.45
2023-01-09T00:55:36.391Z,2.62
2023-01-09T00:58:06.570Z,2.20
2023-01-09T01:00:36.134Z,2.08
2023-01-09T01:03:05.648Z,2.10
2023-01-09T01:05:54.040Z,2.77
2023-01-09T01:08:23.464Z,2.55
2023-01-09T01:10:53.357Z,2.05
2023-01-09T01:13:22.793Z,2.30
2023-01-09T01:15:52.267Z,2.30
2023-01-09T01:18:21.992Z,2.80
2023-01-09T01:20:51.394Z,2.17
2023-01-09T01:23:20.815Z,2.52
2023-01-09T01:25:50.658Z,2.42
2023-01-09T01:28:20.068Z,1.95
2023-01-09T01:30:49.566Z,2.08
2023-01-09T01:33:19.101Z,2.22
2023-01-09T01:35:49.880Z,2.30
2023-01-09T01:38:19.319Z,1.72
2023-01-09T01:40:51.921Z,2.05
2023-01-09T01:45:50.024Z,2.02
2023-01-09T01:48:25.657Z,2.42
2023-01-09T01:50:58.226Z,2.67
2023-01-09T01:53:33.796Z,2.27
2023-01-09T01:56:22.702Z,2.40
2023-01-09T01:59:01.065Z,2.67
2023-01-09T02:01:33.036Z,3.20
2023-01-09T02:04:03.859Z,19.60
2023-01-09T02:06:36.229Z,4.95
2023-01-09T02:09:07.590Z,3.70
2023-01-09T02:11:37.113Z,10.23
2023-01-09T02:14:06.643Z,10.15
2023-01-09T02:17:00.257Z,13.00
2023-01-09T02:19:50.412Z,5.75
2023-01-09T02:22:45.747Z,4.03
2023-01-09T02:25:30.376Z,2.90
2023-01-09T02:28:12.286Z,5.40
2023-01-09T02:30:53.949Z,4.20
2023-01-09T02:33:29.599Z,3.62
2023-01-09T02:36:17.178Z,2.87
2023-01-09T02:38:55.397Z,2.10
2023-01-09T02:41:37.391Z,4.42
2023-01-09T02:44:28.437Z,3.50
2023-01-09T02:47:06.996Z,2.40
2023-01-09T02:49:39.582Z,3.20
2023-01-09T02:52:17.966Z,2.52
2023-01-09T02:54:59.688Z,2.50
2023-01-09T02:58:05.268Z,3.30
2023-01-09T03:00:57.991Z,3.00
2023-01-09T03:03:42.124Z,2.40
2023-01-09T03:06:23.528Z,2.85
2023-01-09T03:08:58.762Z,2.98
2023-01-09T03:11:31.743Z,2.37
2023-01-09T03:14:04.236Z,2.35
2023-01-09T03:16:37.229Z,2.50
2023-01-09T03:19:09.797Z,2.15
2023-01-09T03:21:40.936Z,2.30
2023-01-09T03:25:41.947Z,2.08
2023-01-09T03:28:26.631Z,2.47
2023-01-09T03:30:56.514Z,2.80
2023-01-09T03:33:26.367Z,2.30
2023-01-09T03:35:55.787Z,2.95
2023-01-09T03:38:25.285Z,2.55
2023-01-09T03:40:55.505Z,2.62
2023-01-09T03:43:24.924Z,2.62
2023-01-09T03:45:54.527Z,2.80
2023-01-09T03:48:24.403Z,2.60
2023-01-09T03:50:55.153Z,2.75
2023-01-09T03:53:27.496Z,2.40
2023-01-09T03:55:59.481Z,1.98
2023-01-09T03:58:29.091Z,2.58
2023-01-09T04:01:04.289Z,2.30
2023-01-09T04:03:34.116Z,3.02
2023-01-09T04:06:03.514Z,2.30
2023-01-09T04:08:32.935Z,2.20
2023-01-09T04:11:02.383Z,2.55
2023-01-09T04:13:31.820Z,2.62
2023-01-09T04:16:01.303Z,2.00
2023-01-09T04:18:31.381Z,1.92
2023-01-09T04:21:00.800Z,2.58
2023-01-09T04:23:30.229Z,3.05
2023-01-09T04:25:59.708Z,2.45
2023-01-09T04:28:29.174Z,2.60
2023-01-09T04:30:58.607Z,2.20
2023-01-09T04:33:28.409Z,2.70
2023-01-09T04:35:57.901Z,2.22
2023-01-09T04:38:27.693Z,2.27
2023-01-09T04:40:57.135Z,3.00
2023-01-09T04:43:27.186Z,2.33
2023-01-09T04:45:56.700Z,1.82
2023-01-09T04:48:26.667Z,2.25
2023-01-09T04:50:56.085Z,2.60
2023-01-09T04:53:25.515Z,2.40
2023-01-09T04:55:54.966Z,2.40
2023-01-09T04:58:24.395Z,2.02
2023-01-09T05:00:53.894Z,2.58
2023-01-09T05:03:23.371Z,2.27
2023-01-09T05:05:53.384Z,2.66
2023-01-09T05:08:22.808Z,2.62
2023-01-09T05:10:52.616Z,2.37
2023-01-09T05:13:22.120Z,2.25
2023-01-09T05:15:51.540Z,2.20
2023-01-09T05:18:21.059Z,1.92
2023-01-09T05:20:50.515Z,2.33
2023-01-09T05:23:19.938Z,1.90
2023-01-09T05:25:49.417Z,1.90
2023-01-09T05:28:18.908Z,2.15
2023-01-09T05:30:49.179Z,1.85
2023-01-09T05:33:18.780Z,2.40
2023-01-09T05:35:48.212Z,2.45
2023-01-09T05:38:18.435Z,2.02
2023-01-09T05:40:48.044Z,2.42
2023-01-09T05:43:17.524Z,2.08
2023-01-09T05:45:47.027Z,1.95
2023-01-09T05:48:16.457Z,2.92
2023-01-09T05:50:45.906Z,2.15
2023-01-09T05:53:15.845Z,3.10
2023-01-09T05:55:46.400Z,2.37
2023-01-09T05:58:16.282Z,2.83
2023-01-09T06:00:45.836Z,2.52
2023-01-09T06:03:15.343Z,2.45
2023-01-09T06:05:44.857Z,2.62
2023-01-09T06:08:14.266Z,1.87
2023-01-09T06:10:43.921Z,2.33
2023-01-09T06:45:29.831Z,2.40
2023-01-09T06:47:59.349Z,2.37
2023-01-09T06:50:28.842Z,3.05
2023-01-09T06:52:58.249Z,2.08
2023-01-09T06:55:27.754Z,2.40
2023-01-09T06:57:57.266Z,3.00
2023-01-09T07:00:27.614Z,3.08
2023-01-09T07:02:57.269Z,2.92
2023-01-09T07:05:26.796Z,2.35
2023-01-09T07:07:57.590Z,2.72
2023-01-09T07:10:27.153Z,2.67
2023-01-09T07:12:56.589Z,2.60
2023-01-09T07:15:26.244Z,3.12
2023-01-09T07:17:55.756Z,2.20
2023-01-09T07:20:25.247Z,1.85
2023-01-09T07:22:55.350Z,2.72
2023-01-09T07:25:24.968Z,2.47
2023-01-09T07:27:54.389Z,2.00
2023-01-09T07:30:24.034Z,1.87
2023-01-09T07:32:54.460Z,2.08
2023-01-09T07:35:24.170Z,2.50
2023-01-09T07:37:53.793Z,1.30
2023-01-09T07:40:24.709Z,2.98
2023-01-09T07:42:54.806Z,2.08
2023-01-09T07:45:26.047Z,2.50
2023-01-09T07:47:55.467Z,2.17
2023-01-09T07:50:24.891Z,1.83
2023-01-09T07:52:54.782Z,2.25
2023-01-09T07:55:24.207Z,2.12
2023-01-09T07:57:55.586Z,2.00
2023-01-09T08:00:25.152Z,2.08
2023-01-09T08:02:54.895Z,2.75
2023-01-09T08:05:24.701Z,2.00
2023-01-09T08:07:54.209Z,2.15
2023-01-09T08:10:23.713Z,1.80
2023-01-09T08:12:53.206Z,1.50
2023-01-09T08:15:22.634Z,1.90
2023-01-09T08:17:52.058Z,1.77
2023-01-09T08:20:22.161Z,1.62
2023-01-09T08:22:53.307Z,1.90
2023-01-09T08:25:22.772Z,1.77
2023-01-09T08:27:53.364Z,1.80
2023-01-09T08:30:24.127Z,1.67
2023-01-09T08:32:55.604Z,2.27
2023-01-09T08:35:25.609Z,2.35
2023-01-09T08:37:55.858Z,2.05
2023-01-09T08:40:25.433Z,2.77
2023-01-09T08:43:12.845Z,2.40
2023-01-09T08:46:00.148Z,2.58
2023-01-09T08:48:29.987Z,2.45
2023-01-09T08:50:59.571Z,2.50
2023-01-09T08:53:29.806Z,2.10
2023-01-09T08:55:59.364Z,2.10
2023-01-09T08:58:30.252Z,1.85
2023-01-09T09:01:00.684Z,1.72
2023-01-09T09:03:30.091Z,1.77
2023-01-09T09:05:59.533Z,1.80
2023-01-09T09:08:29.070Z,1.80
2023-01-09T09:11:00.132Z,1.65
2023-01-09T09:13:29.645Z,1.52
2023-01-09T09:15:59.211Z,1.87
2023-01-09T09:18:28.908Z,1.87
2023-01-09T09:20:58.621Z,1.87
2023-01-09T09:23:28.031Z,2.50
2023-01-09T09:25:57.516Z,2.25
2023-01-09T09:28:26.996Z,2.52
2023-01-09T09:30:56.432Z,2.20
2023-01-09T09:33:26.515Z,2.02
2023-01-09T09:35:57.009Z,2.57
2023-01-09T09:38:26.433Z,2.37
2023-01-09T09:41:07.770Z,2.85
2023-01-09T09:44:03.842Z,2.62
2023-01-09T09:46:46.739Z,1.92
2023-01-09T09:51:50.599Z,1.95
2023-01-09T09:56:53.392Z,2.08
2023-01-09T09:59:27.017Z,2.25
2023-01-09T10:02:02.681Z,1.65
2023-01-09T10:04:35.094Z,2.05
2023-01-09T10:07:09.774Z,2.57
2023-01-09T10:09:51.011Z,2.25
2023-01-09T10:12:31.970Z,1.70
2023-01-09T10:15:19.452Z,2.10
2023-01-09T10:18:07.571Z,2.33
2023-01-09T10:20:57.874Z,2.05
2023-01-09T10:23:42.166Z,1.70
2023-01-09T10:26:40.552Z,1.70
2023-01-09T10:29:31.446Z,2.00
2023-01-09T10:32:31.769Z,1.50
2023-01-09T10:35:13.573Z,2.00
2023-01-09T10:40:22.714Z,2.00
2023-01-09T10:43:10.212Z,2.33
2023-01-09T10:45:47.401Z,1.60
2023-01-09T10:48:28.990Z,1.75
2023-01-09T10:51:00.451Z,1.55
2023-01-09T10:53:41.577Z,2.20
2023-01-09T10:56:20.375Z,2.10
2023-01-09T10:58:51.763Z,2.47
2023-01-09T11:01:27.146Z,2.33
2023-01-09T11:03:58.414Z,1.77
2023-01-09T11:06:31.448Z,2.47
2023-01-09T11:09:03.024Z,2.15
2023-01-09T11:11:38.662Z,2.35
2023-01-09T11:14:18.254Z,2.08
2023-01-09T11:16:57.120Z,2.00
2023-01-09T11:19:27.809Z,1.80
2023-01-09T11:22:18.899Z,1.80
2023-01-09T11:24:51.386Z,1.35
2023-01-09T11:27:24.244Z,1.77
2023-01-09T11:30:08.909Z,1.47
2023-01-09T11:32:38.798Z,1.35
2023-01-09T11:35:19.810Z,1.45
2023-01-09T11:38:10.557Z,1.15
2023-01-09T11:40:49.594Z,1.30
2023-01-09T11:43:22.511Z,1.30
2023-01-09T11:46:01.509Z,1.17
2023-01-09T11:48:43.819Z,1.33
2023-01-09T11:51:22.329Z,1.27
2023-01-09T11:53:55.018Z,1.47
2023-01-09T11:56:24.983Z,1.77
2023-01-09T11:58:54.849Z,1.60
2023-01-09T12:01:51.947Z,2.75
2023-01-09T12:04:40.983Z,1.57
2023-01-09T12:07:25.310Z,1.12
2023-01-09T12:10:03.799Z,1.45
2023-01-09T12:13:09.992Z,1.23
2023-01-09T12:15:48.644Z,1.07
2023-01-09T12:18:36.065Z,1.20
2023-01-09T12:21:31.305Z,0.80
2023-01-09T12:24:22.169Z,0.85
2023-01-09T12:27:17.113Z,1.05
2023-01-09T12:30:00.789Z,1.30
2023-01-09T12:32:35.930Z,1.00
2023-01-09T12:35:20.526Z,1.45
2023-01-09T12:37:58.624Z,1.40
2023-01-09T12:40:32.197Z,1.60
2023-01-09T12:43:24.152Z,1.30
2023-01-09T12:45:56.916Z,2.10
2023-01-09T12:48:37.028Z,1.72
2023-01-09T12:51:15.339Z,1.60
2023-01-09T12:53:47.934Z,2.00
2023-01-09T12:56:23.350Z,2.30
2023-01-09T12:58:55.848Z,1.83
2023-01-09T13:01:33.586Z,2.50
2023-01-09T13:04:15.261Z,2.10
2023-01-09T13:06:48.727Z,1.80
2023-01-09T13:09:24.696Z,2.33
2023-01-09T13:12:20.429Z,2.22
2023-01-09T13:15:08.134Z,2.20
2023-01-09T13:17:43.860Z,1.92
2023-01-09T13:20:22.599Z,2.20
2023-01-09T13:22:53.554Z,2.30
2023-01-09T13:25:37.844Z,2.30
2023-01-09T13:28:16.468Z,2.37
2023-01-09T13:31:07.091Z,2.07
2023-01-09T13:33:41.128Z,2.67
2023-01-09T13:36:13.781Z,2.20
2023-01-09T13:38:45.175Z,2.50
2023-01-09T13:41:35.834Z,2.55
2023-01-09T13:44:21.197Z,2.97
2023-01-09T13:46:56.868Z,2.67
2023-01-09T13:49:35.171Z,2.60
2023-01-09T13:52:26.442Z,2.50
2023-01-09T18:53:21.727Z,17.32
2023-01-09T18:55:51.944Z,10.15
2023-01-09T18:58:21.353Z,7.22
2023-01-09T19:00:52.233Z,6.60
2023-01-09T19:03:21.950Z,7.47
2023-01-09T19:05:51.553Z,6.90
2023-01-09T19:08:21.638Z,5.72
2023-01-09T19:10:54.864Z,6.10
2023-01-09T19:13:24.916Z,6.08
2023-01-09T19:15:59.162Z,5.37
2023-01-09T19:18:31.147Z,5.65
2023-01-09T19:21:00.647Z,4.20
2023-01-09T19:23:31.014Z,6.90
2023-01-09T19:26:03.512Z,5.25
2023-01-09T19:28:33.004Z,7.65
2023-01-09T19:31:03.770Z,13.48
2023-01-09T19:33:33.263Z,11.20
2023-01-09T19:36:02.695Z,8.70
2023-01-09T19:38:32.504Z,7.58
2023-01-09T19:41:12.659Z,11.48
2023-01-09T19:43:45.280Z,16.70
2023-01-09T19:46:20.721Z,30.25
2023-01-09T19:48:51.897Z,15.40
2023-01-09T19:51:23.131Z,19.77
2023-01-09T19:53:55.673Z,15.83
2023-01-09T19:56:28.589Z,15.43
2023-01-09T19:59:02.686Z,17.98
2023-01-09T20:01:35.087Z,18.62
2023-01-09T20:04:09.081Z,10.35
2023-01-09T20:06:44.164Z,11.50
2023-01-09T20:09:16.068Z,9.03
2023-01-09T20:11:45.977Z,9.33
2023-01-09T20:14:17.506Z,9.03
2023-01-09T20:16:48.871Z,10.93
2023-01-09T20:19:18.720Z,8.90
2023-01-09T20:21:49.442Z,10.63
2023-01-09T20:24:20.671Z,9.25
2023-01-09T20:26:51.262Z,9.40
2023-01-09T20:29:21.115Z,11.53
2023-01-09T20:31:50.744Z,11.53
2023-01-09T20:34:20.234Z,7.83
2023-01-09T20:36:49.867Z,7.67
2023-01-09T20:39:19.351Z,7.20
2023-01-09T20:41:48.849Z,6.00
2023-01-09T20:44:18.326Z,7.00
2023-01-09T20:46:48.462Z,9.28
2023-01-09T20:49:19.194Z,8.50
2023-01-09T20:51:52.134Z,10.98
2023-01-09T20:54:22.898Z,7.08
2023-01-09T20:56:52.390Z,16.03
2023-01-09T20:59:22.589Z,7.08
2023-01-09T21:01:52.397Z,9.20
2023-01-09T21:04:21.871Z,9.80
2023-01-09T21:06:51.870Z,8.50
2023-01-09T21:09:21.508Z,6.20
2023-01-09T21:11:51.492Z,6.60
2023-01-09T21:14:20.998Z,7.03
2023-01-09T21:16:54.921Z,6.57
2023-01-09T21:19:22.473Z,5.33
2023-01-09T21:21:53.417Z,6.17
2023-01-09T21:24:23.549Z,6.50
2023-01-09T21:26:52.978Z,6.30
2023-01-09T21:29:22.490Z,6.40
2023-01-09T21:31:52.493Z,6.83
2023-01-09T21:34:21.977Z,5.97
2023-01-09T21:36:52.173Z,6.65
2023-01-09T21:39:22.247Z,5.80
2023-01-09T21:42:09.953Z,5.33
2023-01-09T21:44:57.435Z,5.75
2023-01-09T21:47:27.017Z,5.80
2023-01-09T21:49:56.456Z,6.03
2023-01-09T21:52:25.889Z,6.37
2023-01-09T21:54:56.292Z,5.97
2023-01-09T21:57:25.722Z,6.28
2023-01-09T21:59:55.222Z,6.27
2023-01-09T22:02:24.761Z,6.25
2023-01-09T22:04:55.904Z,6.10
2023-01-09T22:07:25.652Z,6.33
2023-01-09T22:09:55.089Z,6.00
2023-01-09T22:12:24.532Z,6.17
2023-01-09T22:14:54.426Z,6.60
2023-01-09T22:17:23.844Z,5.60
2023-01-09T22:19:53.271Z,6.58
2023-01-09T22:22:22.757Z,5.87
2023-01-09T22:24:53.359Z,6.13
2023-01-09T22:27:23.967Z,6.70
2023-01-09T22:29:53.383Z,6.53
2023-01-09T22:32:22.891Z,6.25
2023-01-09T22:34:52.328Z,6.23
2023-01-09T22:37:23.316Z,5.87
2023-01-09T22:39:52.762Z,6.50
2023-01-09T22:42:22.263Z,5.70
2023-01-09T22:44:51.689Z,5.78
2023-01-09T22:47:21.122Z,5.90
2023-01-09T22:49:53.358Z,6.03
2023-01-09T22:52:22.448Z,5.25
2023-01-09T22:54:51.904Z,5.50
2023-01-09T22:57:21.509Z,5.67
2023-01-09T22:59:52.679Z,6.75
2023-01-09T23:02:22.236Z,6.15
2023-01-09T23:04:53.645Z,6.47
2023-01-09T23:07:23.085Z,6.45
2023-01-09T23:09:53.578Z,6.50
2023-01-09T23:12:24.161Z,6.97
2023-01-09T23:14:54.014Z,5.67
2023-01-09T23:17:23.531Z,5.65
2023-01-09T23:19:52.942Z,5.67
2023-01-09T23:22:23.357Z,6.00
2023-01-09T23:24:52.995Z,5.97
2023-01-09T23:27:22.426Z,5.80
2023-01-09T23:29:52.176Z,5.97
2023-01-09T23:32:21.607Z,5.13
2023-01-09T23:34:51.101Z,5.37
2023-01-09T23:37:20.892Z,5.45
2023-01-09T23:39:50.312Z,5.27
2023-01-09T23:42:37.840Z,5.95
2023-01-09T23:45:07.811Z,5.20
2023-01-09T23:47:37.345Z,5.55
2023-01-09T23:50:08.641Z,5.63
2023-01-09T23:52:38.284Z,5.53
2023-01-09T23:55:10.034Z,6.20
2023-01-09T23:57:39.468Z,5.53
